createdAt,value
2022-07-26T00:00:16.862Z,35.06
2022-07-26T00:00:38.671Z,34.10
2022-07-26T00:01:00.432Z,34.19
2022-07-26T00:01:23.809Z,33.77
2022-07-26T00:01:49.843Z,34.76
2022-07-26T00:02:16.588Z,35.88
2022-07-26T00:02:47.422Z,33.97
2022-07-26T00:03:10.096Z,33.46
2022-07-26T00:03:32.613Z,34.66
2022-07-26T00:03:54.873Z,35.17
2022-07-26T00:04:17.642Z,33.35
2022-07-26T00:04:39.402Z,33.40
2022-07-26T00:05:01.088Z,33.01
2022-07-26T00:05:22.769Z,32.86
2022-07-26T00:05:45.508Z,33.29
2022-07-26T00:06:07.190Z,33.60
2022-07-26T00:06:29.056Z,33.21
2022-07-26T00:06:50.659Z,32.78
2022-07-26T00:07:13.334Z,32.79
2022-07-26T00:07:36.634Z,32.81
2022-07-26T00:08:10.633Z,32.76
2022-07-26T00:08:33.366Z,32.73
2022-07-26T00:08:55.131Z,32.85
2022-07-26T00:09:16.790Z,33.29
2022-07-26T00:09:38.497Z,35.56
2022-07-26T00:10:01.356Z,33.80
2022-07-26T00:10:23.022Z,33.69
2022-07-26T00:10:48.746Z,33.40
2022-07-26T00:11:10.455Z,34.49
2022-07-26T00:11:33.720Z,35.91
2022-07-26T00:11:55.474Z,35.88
2022-07-26T00:12:17.141Z,35.08
2022-07-26T00:12:38.960Z,35.18
2022-07-26T00:13:00.605Z,35.01
2022-07-26T00:13:23.368Z,35.17
2022-07-26T00:13:45.609Z,34.89
2022-07-26T00:14:08.443Z,36.01
2022-07-26T00:15:07.187Z,36.84
2022-07-26T00:15:30.428Z,33.86
2022-07-26T00:15:52.849Z,33.27
2022-07-26T00:16:15.402Z,33.64
2022-07-26T00:16:37.747Z,33.35
2022-07-26T00:17:00.705Z,33.73
2022-07-26T00:17:22.521Z,34.31
2022-07-26T00:17:44.219Z,34.83
2022-07-26T00:18:06.540Z,34.58
2022-07-26T00:18:34.946Z,33.92
2022-07-26T00:18:56.967Z,34.66
2022-07-26T00:19:18.694Z,33.94
2022-07-26T00:19:41.405Z,35.00
2022-07-26T00:20:03.943Z,33.96
2022-07-26T00:20:27.674Z,35.29
2022-07-26T00:20:50.182Z,35.28
2022-07-26T00:21:12.242Z,34.64
2022-07-26T00:21:36.819Z,34.27
2022-07-26T00:22:21.054Z,33.80
2022-07-26T00:22:44.197Z,33.54
2022-07-26T00:23:06.222Z,33.48
2022-07-26T00:23:29.045Z,33.39
2022-07-26T00:23:50.957Z,32.99
2022-07-26T00:24:12.932Z,33.26
2022-07-26T00:24:35.605Z,33.14
2022-07-26T00:24:58.438Z,33.73
2022-07-26T00:25:20.897Z,33.49
2022-07-26T00:25:42.782Z,33.33
2022-07-26T00:26:04.537Z,33.46
2022-07-26T00:26:27.331Z,33.30
2022-07-26T00:26:49.247Z,33.56
2022-07-26T00:27:11.054Z,34.61
2022-07-26T00:27:36.964Z,34.08
2022-07-26T00:27:59.251Z,35.03
2022-07-26T00:28:22.015Z,34.81
2022-07-26T00:28:43.767Z,33.85
2022-07-26T00:29:06.146Z,33.79
2022-07-26T00:29:28.234Z,35.36
2022-07-26T00:29:49.979Z,35.11
2022-07-26T00:30:13.325Z,34.78
2022-07-26T00:30:35.038Z,34.26
2022-07-26T00:30:56.827Z,35.96
2022-07-26T00:31:18.697Z,34.76
2022-07-26T00:31:41.566Z,35.11
2022-07-26T00:32:03.615Z,34.41
2022-07-26T00:32:25.463Z,33.55
2022-07-26T00:32:47.546Z,33.64
2022-07-26T00:33:09.343Z,33.31
2022-07-26T00:33:32.158Z,33.49
2022-07-26T00:33:53.936Z,33.45
2022-07-26T00:34:15.698Z,33.17
2022-07-26T00:34:38.615Z,33.39
2022-07-26T00:35:01.400Z,33.36
2022-07-26T00:35:23.707Z,33.31
2022-07-26T00:35:45.929Z,33.28
2022-07-26T00:36:08.113Z,33.33
2022-07-26T00:36:31.048Z,33.53
2022-07-26T00:36:52.799Z,33.51
2022-07-26T00:37:19.984Z,33.60
2022-07-26T00:37:42.228Z,34.02
2022-07-26T00:38:06.236Z,34.54
2022-07-26T00:38:27.897Z,34.55
2022-07-26T00:38:49.643Z,33.98
2022-07-26T00:39:11.720Z,33.68
2022-07-26T00:39:33.572Z,33.63
2022-07-26T00:39:56.304Z,33.45
2022-07-26T00:40:18.505Z,33.84
2022-07-26T00:40:40.230Z,34.06
2022-07-26T00:41:02.006Z,33.77
2022-07-26T00:41:24.699Z,33.97
2022-07-26T00:41:46.448Z,34.35
2022-07-26T00:42:08.213Z,34.64
2022-07-26T00:42:29.905Z,34.44
2022-07-26T00:42:51.817Z,35.68
2022-07-26T00:43:14.473Z,36.62
2022-07-26T00:43:36.219Z,37.07
2022-07-26T00:43:59.405Z,36.71
2022-07-26T00:44:21.527Z,37.05
2022-07-26T00:44:46.167Z,37.07
2022-07-26T00:45:10.063Z,35.17
2022-07-26T00:45:31.708Z,34.63
2022-07-26T00:45:53.470Z,34.46
2022-07-26T00:46:15.223Z,34.41
2022-07-26T00:46:38.036Z,33.89
2022-07-26T00:46:59.842Z,34.00
2022-07-26T00:47:21.549Z,33.87
2022-07-26T00:47:43.569Z,34.11
2022-07-26T00:48:07.218Z,34.02
2022-07-26T00:48:28.947Z,34.55
2022-07-26T00:48:50.674Z,34.60
2022-07-26T00:49:13.063Z,34.30
2022-07-26T00:49:36.330Z,33.70
2022-07-26T00:49:58.035Z,33.41
2022-07-26T00:50:20.059Z,33.67
2022-07-26T00:50:41.743Z,34.50
2022-07-26T00:51:04.477Z,33.76
2022-07-26T00:51:26.483Z,33.38
2022-07-26T00:51:48.281Z,33.25
2022-07-26T00:52:10.730Z,33.91
2022-07-26T00:52:33.402Z,33.97
2022-07-26T00:52:55.296Z,33.93
2022-07-26T00:53:21.443Z,33.87
2022-07-26T00:53:46.693Z,34.42
2022-07-26T00:54:08.493Z,34.46
2022-07-26T00:54:30.280Z,34.68
2022-07-26T00:54:54.161Z,34.64
2022-07-26T00:55:17.923Z,34.34
2022-07-26T00:55:39.671Z,33.66
2022-07-26T00:56:01.439Z,33.85
2022-07-26T00:56:24.092Z,33.43
2022-07-26T00:56:49.896Z,33.68
2022-07-26T00:57:14.988Z,33.92
2022-07-26T00:57:37.973Z,33.76
2022-07-26T00:58:02.098Z,33.73
2022-07-26T00:58:23.800Z,34.25
2022-07-26T00:58:45.495Z,34.18
2022-07-26T00:59:07.464Z,34.33
2022-07-26T00:59:30.364Z,34.31
2022-07-26T00:59:52.296Z,34.17
2022-07-26T01:00:16.912Z,34.15
2022-07-26T01:00:39.595Z,34.61
2022-07-26T01:01:01.311Z,34.72
2022-07-26T01:01:24.710Z,34.22
2022-07-26T01:01:47.653Z,34.02
2022-07-26T01:02:10.814Z,34.41
2022-07-26T01:02:32.695Z,34.71
2022-07-26T01:02:55.118Z,34.30
2022-07-26T01:03:17.881Z,34.17
2022-07-26T01:03:40.040Z,34.11
2022-07-26T01:04:01.849Z,34.21
2022-07-26T01:04:23.757Z,34.41
2022-07-26T01:04:46.151Z,33.53
2022-07-26T01:05:09.305Z,34.01
2022-07-26T01:05:32.477Z,33.77
2022-07-26T01:05:54.429Z,33.77
2022-07-26T01:06:16.710Z,34.12
2022-07-26T01:06:39.328Z,34.41
2022-07-26T01:07:01.181Z,34.61
2022-07-26T01:07:23.476Z,34.78
2022-07-26T01:07:46.905Z,34.82
2022-07-26T01:08:08.580Z,34.46
2022-07-26T01:08:32.700Z,34.00
2022-07-26T01:08:54.696Z,34.41
2022-07-26T01:09:16.902Z,34.39
2022-07-26T01:09:39.197Z,34.44
2022-07-26T01:10:02.879Z,34.65
2022-07-26T01:10:24.929Z,35.22
2022-07-26T01:10:47.132Z,34.74
2022-07-26T01:11:08.862Z,35.12
2022-07-26T01:11:31.562Z,35.05
2022-07-26T01:11:53.575Z,34.54
2022-07-26T01:12:15.225Z,34.83
2022-07-26T01:12:36.889Z,34.58
2022-07-26T01:12:59.830Z,34.85
2022-07-26T01:13:22.256Z,34.81
2022-07-26T01:13:47.209Z,35.27
2022-07-26T01:14:09.444Z,35.64
2022-07-26T01:14:32.363Z,35.43
2022-07-26T01:14:54.009Z,35.17
2022-07-26T01:15:16.569Z,34.89
2022-07-26T01:15:38.257Z,34.77
2022-07-26T01:16:00.995Z,34.62
2022-07-26T01:16:23.399Z,34.27
2022-07-26T01:16:45.129Z,34.41
2022-07-26T01:17:06.827Z,34.64
2022-07-26T01:17:29.613Z,34.56
2022-07-26T01:17:51.234Z,34.42
2022-07-26T01:18:12.904Z,34.50
2022-07-26T01:18:34.610Z,34.48
2022-07-26T01:18:57.231Z,34.64
2022-07-26T01:19:19.641Z,34.96
2022-07-26T01:19:41.883Z,34.95
2022-07-26T01:20:04.636Z,35.24
2022-07-26T01:20:27.384Z,35.03
2022-07-26T01:20:50.498Z,34.71
2022-07-26T01:21:14.011Z,34.91
2022-07-26T01:21:37.351Z,35.41
2022-07-26T01:22:00.101Z,35.38
2022-07-26T01:22:21.805Z,35.33
2022-07-26T01:22:43.620Z,35.28
2022-07-26T01:23:06.054Z,35.51
2022-07-26T01:23:29.008Z,35.44
2022-07-26T01:23:53.869Z,35.44
2022-07-26T01:24:15.811Z,35.57
2022-07-26T01:24:37.999Z,35.54
2022-07-26T01:25:00.805Z,35.14
2022-07-26T01:25:29.528Z,35.36
2022-07-26T01:25:51.161Z,35.63
2022-07-26T01:26:14.881Z,35.78
2022-07-26T01:26:36.580Z,36.09
2022-07-26T01:26:58.353Z,35.71
2022-07-26T01:27:20.865Z,36.27
2022-07-26T01:27:44.590Z,36.08
2022-07-26T01:28:06.266Z,36.07
2022-07-26T01:28:27.912Z,35.94
2022-07-26T01:28:49.740Z,35.89
2022-07-26T01:29:11.534Z,36.21
2022-07-26T01:29:35.882Z,36.24
2022-07-26T01:29:58.292Z,36.54
2022-07-26T01:30:19.928Z,36.47
2022-07-26T01:30:41.741Z,36.80
2022-07-26T01:31:04.827Z,36.41
2022-07-26T01:31:26.608Z,36.23
2022-07-26T01:31:48.866Z,36.38
2022-07-26T01:32:10.591Z,36.72
2022-07-26T01:32:33.257Z,36.85
2022-07-26T01:32:55.128Z,36.46
2022-07-26T01:33:16.953Z,36.33
2022-07-26T01:33:38.760Z,36.53
2022-07-26T01:34:01.528Z,36.27
2022-07-26T01:34:23.338Z,36.41
2022-07-26T01:34:45.169Z,36.46
2022-07-26T01:35:08.025Z,36.30
2022-07-26T01:35:30.698Z,36.75
2022-07-26T01:35:52.321Z,36.90
2022-07-26T01:36:14.359Z,36.46
2022-07-26T01:36:37.397Z,36.34
2022-07-26T01:37:02.795Z,36.37
2022-07-26T01:37:24.479Z,36.23
2022-07-26T01:37:46.133Z,36.84
2022-07-26T01:38:07.954Z,36.87
2022-07-26T01:38:29.717Z,36.94
2022-07-26T01:38:52.385Z,36.78
2022-07-26T01:39:14.159Z,37.51
2022-07-26T01:39:35.969Z,37.32
2022-07-26T01:39:57.651Z,37.10
2022-07-26T01:40:19.311Z,37.49
2022-07-26T01:40:42.020Z,38.38
2022-07-26T01:41:03.727Z,38.46
2022-07-26T01:41:37.147Z,37.53
2022-07-26T01:41:59.911Z,37.11
2022-07-26T01:42:22.579Z,40.07
2022-07-26T01:42:44.228Z,38.49
2022-07-26T01:43:06.006Z,38.15
2022-07-26T01:43:27.943Z,39.35
2022-07-26T01:43:50.613Z,39.87
2022-07-26T01:44:12.725Z,39.75
2022-07-26T01:44:34.778Z,40.39
2022-07-26T01:44:57.698Z,40.16
2022-07-26T01:45:19.422Z,39.78
2022-07-26T01:45:41.127Z,38.10
2022-07-26T01:46:03.797Z,37.76
2022-07-26T01:46:26.481Z,38.31
2022-07-26T01:46:48.239Z,38.49
2022-07-26T01:47:09.931Z,38.31
2022-07-26T01:47:31.589Z,38.08
2022-07-26T01:47:53.249Z,37.03
2022-07-26T01:48:16.073Z,36.88
2022-07-26T01:48:37.805Z,36.65
2022-07-26T01:49:01.567Z,36.68
2022-07-26T01:49:24.473Z,36.60
2022-07-26T01:49:46.186Z,36.58
2022-07-26T01:50:09.273Z,36.63
2022-07-26T01:50:30.974Z,36.84
2022-07-26T01:50:52.743Z,36.40
2022-07-26T01:51:15.447Z,36.58
2022-07-26T01:51:38.482Z,36.86
2022-07-26T01:52:00.337Z,37.07
2022-07-26T01:52:22.034Z,36.83
2022-07-26T01:52:45.610Z,36.99
2022-07-26T01:53:07.308Z,37.20
2022-07-26T01:53:29.116Z,37.31
2022-07-26T01:53:50.746Z,37.09
2022-07-26T01:54:13.454Z,36.93
2022-07-26T01:54:36.241Z,37.08
2022-07-26T01:54:57.999Z,37.31
2022-07-26T01:55:19.929Z,37.36
2022-07-26T01:55:42.639Z,37.30
2022-07-26T01:56:04.716Z,37.34
2022-07-26T01:56:26.373Z,37.25
2022-07-26T01:56:47.995Z,37.04
2022-07-26T01:57:10.802Z,37.40
2022-07-26T01:57:32.487Z,37.23
2022-07-26T01:57:54.885Z,37.89
2022-07-26T01:58:17.577Z,38.18
2022-07-26T01:58:40.389Z,40.61
2022-07-26T01:59:02.229Z,38.89
2022-07-26T01:59:23.902Z,42.96
2022-07-26T01:59:45.557Z,38.76
2022-07-26T02:00:09.502Z,38.65
2022-07-26T02:00:31.831Z,37.99
2022-07-26T02:00:53.483Z,37.85
2022-07-26T02:01:15.260Z,37.36
2022-07-26T02:01:40.286Z,37.39
2022-07-26T02:02:02.263Z,37.69
2022-07-26T02:02:24.121Z,37.43
2022-07-26T02:02:46.024Z,37.62
2022-07-26T02:03:09.812Z,37.67
2022-07-26T02:03:31.622Z,37.87
2022-07-26T02:03:53.317Z,37.92
2022-07-26T02:04:29.830Z,37.86
2022-07-26T02:05:01.866Z,38.16
2022-07-26T02:05:24.101Z,38.13
2022-07-26T02:05:45.856Z,38.22
2022-07-26T02:06:08.118Z,38.14
2022-07-26T02:06:30.714Z,38.12
2022-07-26T02:06:53.707Z,38.63
2022-07-26T02:07:15.717Z,39.04
2022-07-26T02:07:39.247Z,39.09
2022-07-26T02:08:01.963Z,39.00
2022-07-26T02:08:23.701Z,38.36
2022-07-26T02:08:45.399Z,38.84
2022-07-26T02:09:07.637Z,40.43
2022-07-26T02:09:38.107Z,40.60
2022-07-26T02:10:02.722Z,40.10
2022-07-26T02:10:24.635Z,40.24
2022-07-26T02:11:03.345Z,39.78
2022-07-26T02:11:26.180Z,38.17
2022-07-26T02:11:49.128Z,38.12
2022-07-26T02:12:10.833Z,37.99
2022-07-26T02:12:32.495Z,37.71
2022-07-26T02:12:54.157Z,37.69
2022-07-26T02:13:16.382Z,37.76
2022-07-26T02:13:41.109Z,38.06
2022-07-26T02:14:03.161Z,38.11
2022-07-26T02:14:25.686Z,38.14
2022-07-26T02:14:50.305Z,37.98
2022-07-26T02:15:14.744Z,37.80
2022-07-26T02:15:36.472Z,37.94
2022-07-26T02:16:01.720Z,37.79
2022-07-26T02:16:23.516Z,37.87
2022-07-26T02:16:46.213Z,37.57
2022-07-26T02:17:08.199Z,37.81
2022-07-26T02:17:29.868Z,37.77
2022-07-26T02:17:51.536Z,37.72
2022-07-26T02:18:14.293Z,37.84
2022-07-26T02:18:37.555Z,37.88
2022-07-26T02:18:59.226Z,38.13
2022-07-26T02:19:21.838Z,38.48
2022-07-26T02:19:43.821Z,38.01
2022-07-26T02:20:07.734Z,38.05
2022-07-26T02:20:31.205Z,37.93
2022-07-26T02:20:53.894Z,37.84
2022-07-26T02:21:15.571Z,37.96
2022-07-26T02:21:37.438Z,39.00
2022-07-26T02:22:00.526Z,38.52
2022-07-26T02:22:23.154Z,38.15
2022-07-26T02:22:44.814Z,38.21
2022-07-26T02:23:06.726Z,38.01
2022-07-26T02:23:28.933Z,38.08
2022-07-26T02:23:50.583Z,38.42
2022-07-26T02:24:13.231Z,38.20
2022-07-26T02:24:34.891Z,38.10
2022-07-26T02:24:58.498Z,38.25
2022-07-26T02:25:22.209Z,38.26
2022-07-26T02:25:44.924Z,38.24
2022-07-26T02:26:06.738Z,38.03
2022-07-26T02:26:28.451Z,38.06
2022-07-26T02:26:50.119Z,38.05
2022-07-26T02:27:12.804Z,38.23
2022-07-26T02:27:34.507Z,38.14
2022-07-26T02:27:56.589Z,37.87
2022-07-26T02:28:18.373Z,38.20
2022-07-26T02:28:41.777Z,38.02
2022-07-26T02:29:03.479Z,38.05
2022-07-26T02:29:25.815Z,39.07
2022-07-26T02:29:47.543Z,39.09
2022-07-26T02:30:11.410Z,38.85
2022-07-26T02:30:33.413Z,38.54
2022-07-26T02:30:55.547Z,39.47
2022-07-26T02:31:19.611Z,38.98
2022-07-26T02:31:42.454Z,39.10
2022-07-26T02:32:11.052Z,38.92
2022-07-26T02:32:32.788Z,39.41
2022-07-26T02:32:55.396Z,40.01
2022-07-26T02:33:18.065Z,39.98
2022-07-26T02:33:39.758Z,40.75
2022-07-26T02:34:01.381Z,40.38
2022-07-26T02:34:24.553Z,40.19
2022-07-26T02:34:46.291Z,38.50
2022-07-26T02:35:08.643Z,41.07
2022-07-26T02:35:31.904Z,38.38
2022-07-26T02:35:53.566Z,38.50
2022-07-26T02:36:15.310Z,38.52
2022-07-26T02:36:37.000Z,38.20
2022-07-26T02:37:01.867Z,38.27
2022-07-26T02:37:23.544Z,38.45
2022-07-26T02:37:45.236Z,38.37
2022-07-26T02:38:11.757Z,38.21
2022-07-26T02:38:34.417Z,39.06
2022-07-26T02:38:56.082Z,38.70
2022-07-26T02:39:18.161Z,38.36
2022-07-26T02:39:39.825Z,38.57
2022-07-26T02:40:02.523Z,38.09
2022-07-26T02:40:25.172Z,38.55
2022-07-26T02:40:46.998Z,38.89
2022-07-26T02:41:08.693Z,38.58
2022-07-26T02:41:31.629Z,40.14
2022-07-26T02:41:55.096Z,39.26
2022-07-26T02:42:16.813Z,39.94
2022-07-26T02:42:38.490Z,38.94
2022-07-26T02:43:01.437Z,38.79
2022-07-26T02:43:23.098Z,38.36
2022-07-26T02:43:44.821Z,38.43
2022-07-26T02:44:07.566Z,38.43
2022-07-26T02:44:30.748Z,38.39
2022-07-26T02:44:53.977Z,38.17
2022-07-26T02:45:15.725Z,38.57
2022-07-26T02:45:38.109Z,38.41
2022-07-26T02:46:01.470Z,39.02
2022-07-26T02:46:24.044Z,38.72
2022-07-26T02:46:45.757Z,38.92
2022-07-26T02:47:08.455Z,38.57
2022-07-26T02:47:34.522Z,38.57
2022-07-26T02:47:56.806Z,38.45
2022-07-26T02:48:18.526Z,38.43
2022-07-26T02:48:41.239Z,38.31
2022-07-26T02:49:03.179Z,38.34
2022-07-26T02:49:25.034Z,38.51
2022-07-26T02:49:46.674Z,38.89
2022-07-26T02:50:09.211Z,38.37
2022-07-26T02:50:32.071Z,38.60
2022-07-26T02:50:53.738Z,38.74
2022-07-26T02:51:15.422Z,38.88
2022-07-26T02:51:37.133Z,38.95
2022-07-26T02:52:01.083Z,38.79
2022-07-26T02:52:22.714Z,39.24
2022-07-26T02:52:44.426Z,39.29
2022-07-26T02:53:07.058Z,38.98
2022-07-26T02:53:28.754Z,39.23
2022-07-26T02:53:50.492Z,38.95
2022-07-26T02:54:13.194Z,39.41
2022-07-26T02:54:34.836Z,39.04
2022-07-26T02:54:57.966Z,39.01
2022-07-26T02:55:21.705Z,39.20
2022-07-26T02:55:44.335Z,39.35
2022-07-26T02:56:06.362Z,39.47
2022-07-26T02:56:28.453Z,39.47
2022-07-26T02:56:50.138Z,39.48
2022-07-26T02:57:13.688Z,39.26
2022-07-26T02:57:46.659Z,39.65
2022-07-26T02:58:08.626Z,39.30
2022-07-26T02:58:31.347Z,39.50
2022-07-26T02:58:53.026Z,39.75
2022-07-26T02:59:14.656Z,39.76
2022-07-26T02:59:36.526Z,39.55
2022-07-26T02:59:58.219Z,39.90
2022-07-26T03:00:23.949Z,39.90
2022-07-26T03:00:45.905Z,39.83
2022-07-26T03:01:08.121Z,40.25
2022-07-26T03:01:30.829Z,40.24
2022-07-26T03:01:53.669Z,40.45
2022-07-26T03:02:15.530Z,40.58
2022-07-26T03:02:37.467Z,40.68
2022-07-26T03:03:00.765Z,40.49
2022-07-26T03:03:22.476Z,40.13
2022-07-26T03:03:50.409Z,40.53
2022-07-26T03:04:12.675Z,40.32
2022-07-26T03:04:34.385Z,40.10
2022-07-26T03:04:56.068Z,40.10
2022-07-26T03:05:19.298Z,39.97
2022-07-26T03:05:41.313Z,40.07
2022-07-26T03:06:02.953Z,39.96
2022-07-26T03:06:24.670Z,39.79
2022-07-26T03:06:47.321Z,40.18
2022-07-26T03:07:10.324Z,40.07
2022-07-26T03:07:32.411Z,39.94
2022-07-26T03:07:55.073Z,39.91
2022-07-26T03:08:16.935Z,40.10
2022-07-26T03:08:38.632Z,40.16
2022-07-26T03:09:00.410Z,40.27
2022-07-26T03:09:22.098Z,40.20
2022-07-26T03:09:44.712Z,39.88
2022-07-26T03:10:07.697Z,39.99
2022-07-26T03:10:29.531Z,40.17
2022-07-26T03:10:51.972Z,39.92
2022-07-26T03:11:14.685Z,40.36
2022-07-26T03:11:36.341Z,39.90
2022-07-26T03:11:58.065Z,40.38
2022-07-26T03:12:19.697Z,40.43
2022-07-26T03:12:42.833Z,40.02
2022-07-26T03:13:04.563Z,40.40
2022-07-26T03:13:26.251Z,40.25
2022-07-26T03:13:48.918Z,40.21
2022-07-26T03:14:10.977Z,40.93
2022-07-26T03:14:32.881Z,40.70
2022-07-26T03:14:54.464Z,40.82
2022-07-26T03:15:17.089Z,40.95
2022-07-26T03:15:38.781Z,41.08
2022-07-26T03:16:00.890Z,41.11
2022-07-26T03:16:26.097Z,41.09
2022-07-26T03:16:51.064Z,41.05
2022-07-26T03:17:13.896Z,41.29
2022-07-26T03:17:35.662Z,41.04
2022-07-26T03:17:57.333Z,41.28
2022-07-26T03:18:20.033Z,40.73
2022-07-26T03:18:41.740Z,40.90
2022-07-26T03:19:03.448Z,40.80
2022-07-26T03:19:25.089Z,41.10
2022-07-26T03:19:47.734Z,41.25
2022-07-26T03:20:11.141Z,41.01
2022-07-26T03:20:32.859Z,41.51
2022-07-26T03:20:55.272Z,41.16
2022-07-26T03:21:18.354Z,41.38
2022-07-26T03:21:39.975Z,41.46
2022-07-26T03:22:01.730Z,41.74
2022-07-26T03:22:24.771Z,41.72
2022-07-26T03:22:47.507Z,42.11
2022-07-26T03:23:09.213Z,41.98
2022-07-26T03:23:33.520Z,41.92
2022-07-26T03:23:55.332Z,41.97
2022-07-26T03:24:18.034Z,41.93
2022-07-26T03:24:39.837Z,41.93
2022-07-26T03:25:01.668Z,41.84
2022-07-26T03:25:23.397Z,41.73
2022-07-26T03:25:46.018Z,41.90
2022-07-26T03:26:08.688Z,41.81
2022-07-26T03:26:30.328Z,42.12
2022-07-26T03:26:51.962Z,42.01
2022-07-26T03:27:13.743Z,41.79
2022-07-26T03:27:36.573Z,41.65
2022-07-26T03:27:58.259Z,41.66
2022-07-26T03:28:19.967Z,41.53
2022-07-26T03:28:44.497Z,41.58
2022-07-26T03:29:06.191Z,41.51
2022-07-26T03:29:30.114Z,41.85
2022-07-26T03:29:52.783Z,42.14
2022-07-26T03:30:14.697Z,41.45
2022-07-26T03:30:36.544Z,41.62
2022-07-26T03:30:58.593Z,41.73
2022-07-26T03:31:23.366Z,41.79
2022-07-26T03:31:45.174Z,42.10
2022-07-26T03:32:07.167Z,41.55
2022-07-26T03:32:28.878Z,41.52
2022-07-26T03:32:50.686Z,41.77
2022-07-26T03:33:13.392Z,41.73
2022-07-26T03:33:35.015Z,41.82
2022-07-26T03:34:04.123Z,41.48
2022-07-26T03:34:25.923Z,41.66
2022-07-26T03:34:48.557Z,41.47
2022-07-26T03:35:10.193Z,41.66
2022-07-26T03:35:36.628Z,41.58
2022-07-26T03:35:58.665Z,41.73
2022-07-26T03:36:21.301Z,41.66
2022-07-26T03:36:43.831Z,41.66
2022-07-26T03:37:05.541Z,42.00
2022-07-26T03:37:45.173Z,41.97
2022-07-26T03:38:09.088Z,41.86
2022-07-26T03:38:30.760Z,41.86
2022-07-26T03:38:52.440Z,42.24
2022-07-26T03:39:14.121Z,42.56
2022-07-26T03:39:38.000Z,42.35
2022-07-26T03:39:59.742Z,41.94
2022-07-26T03:40:21.551Z,42.23
2022-07-26T03:40:43.236Z,42.54
2022-07-26T03:41:05.970Z,42.70
2022-07-26T03:41:27.951Z,42.21
2022-07-26T03:41:49.657Z,42.11
2022-07-26T03:42:11.329Z,41.83
2022-07-26T03:42:33.031Z,41.93
2022-07-26T03:42:55.812Z,41.83
2022-07-26T03:43:22.516Z,41.44
2022-07-26T03:43:44.593Z,41.39
2022-07-26T03:44:06.891Z,41.66
2022-07-26T03:44:29.856Z,41.24
2022-07-26T03:44:51.526Z,41.63
2022-07-26T03:45:13.891Z,41.68
2022-07-26T03:45:35.985Z,41.38
2022-07-26T03:45:58.664Z,41.79
2022-07-26T03:46:20.403Z,41.95
2022-07-26T03:46:42.141Z,41.99
2022-07-26T03:47:04.088Z,42.16
2022-07-26T03:47:26.768Z,41.77
2022-07-26T03:47:48.507Z,42.29
2022-07-26T03:48:10.201Z,42.14
2022-07-26T03:48:33.383Z,42.32
2022-07-26T03:48:56.417Z,42.28
2022-07-26T03:49:18.282Z,42.54
2022-07-26T03:49:40.109Z,42.80
2022-07-26T03:50:01.752Z,42.56
2022-07-26T03:50:24.433Z,42.67
2022-07-26T03:50:46.183Z,42.91
2022-07-26T03:51:07.893Z,42.82
2022-07-26T03:51:29.603Z,42.92
2022-07-26T03:51:52.328Z,43.02
2022-07-26T03:52:13.938Z,42.88
2022-07-26T03:52:36.960Z,42.54
2022-07-26T03:52:59.606Z,42.31
2022-07-26T03:53:21.431Z,42.18
2022-07-26T03:53:43.134Z,42.05
2022-07-26T03:54:05.166Z,42.23
2022-07-26T03:54:28.190Z,41.93
2022-07-26T03:54:49.873Z,42.15
2022-07-26T03:55:29.938Z,42.37
2022-07-26T03:56:10.284Z,42.12
2022-07-26T03:56:32.149Z,42.13
2022-07-26T03:56:53.868Z,41.72
2022-07-26T03:57:15.562Z,41.68
2022-07-26T03:57:37.215Z,42.06
2022-07-26T03:57:58.885Z,42.25
2022-07-26T03:58:21.523Z,42.38
2022-07-26T03:58:43.133Z,42.42
2022-07-26T03:59:07.540Z,42.37
2022-07-26T03:59:30.190Z,42.30
2022-07-26T03:59:52.322Z,42.16
2022-07-26T04:00:14.886Z,42.21
2022-07-26T04:00:36.553Z,42.25
2022-07-26T04:00:58.210Z,42.34
2022-07-26T04:01:21.264Z,42.48
2022-07-26T04:01:43.247Z,43.17
2022-07-26T04:02:05.213Z,43.14
2022-07-26T04:02:28.047Z,43.12
2022-07-26T04:02:49.841Z,42.76
2022-07-26T04:03:11.606Z,42.34
2022-07-26T04:03:33.274Z,42.31
2022-07-26T04:03:56.083Z,42.18
2022-07-26T04:04:18.367Z,42.31
2022-07-26T04:04:42.722Z,42.23
2022-07-26T04:05:05.098Z,42.13
2022-07-26T04:05:27.740Z,41.85
2022-07-26T04:05:49.675Z,41.67
2022-07-26T04:06:14.890Z,41.46
2022-07-26T04:06:37.159Z,42.01
2022-07-26T04:07:03.208Z,41.96
2022-07-26T04:07:25.536Z,41.69
2022-07-26T04:07:53.359Z,41.78
2022-07-26T04:08:15.215Z,41.50
2022-07-26T04:08:37.925Z,41.91
2022-07-26T04:08:59.557Z,41.52
2022-07-26T04:09:21.238Z,41.97
2022-07-26T04:09:42.994Z,41.85
2022-07-26T04:10:06.490Z,41.98
2022-07-26T04:10:28.415Z,41.80
2022-07-26T04:10:51.183Z,42.02
2022-07-26T04:11:13.131Z,41.40
2022-07-26T04:11:36.286Z,41.59
2022-07-26T04:11:57.892Z,41.58
2022-07-26T04:12:19.585Z,41.93
2022-07-26T04:12:41.432Z,41.91
2022-07-26T04:13:03.055Z,41.56
2022-07-26T04:13:25.758Z,41.90
2022-07-26T04:13:47.447Z,41.85
2022-07-26T04:14:09.600Z,41.76
2022-07-26T04:14:32.645Z,41.84
2022-07-26T04:14:54.355Z,42.03
2022-07-26T04:15:17.125Z,41.50
2022-07-26T04:15:38.937Z,41.69
2022-07-26T04:16:01.674Z,41.92
2022-07-26T04:16:23.703Z,41.63
2022-07-26T04:16:45.424Z,42.09
2022-07-26T04:17:07.088Z,42.39
2022-07-26T04:17:30.006Z,41.95
2022-07-26T04:17:51.622Z,41.79
2022-07-26T04:18:14.242Z,42.49
2022-07-26T04:18:36.017Z,42.33
2022-07-26T04:18:58.751Z,42.48
2022-07-26T04:19:20.344Z,42.22
2022-07-26T04:19:42.073Z,42.15
2022-07-26T04:20:04.487Z,42.05
2022-07-26T04:20:27.161Z,42.41
2022-07-26T04:20:48.865Z,42.28
2022-07-26T04:21:10.570Z,42.59
2022-07-26T04:21:32.301Z,42.38
2022-07-26T04:21:54.931Z,42.82
2022-07-26T04:22:16.604Z,42.72
2022-07-26T04:22:39.667Z,42.45
2022-07-26T04:23:02.711Z,42.84
2022-07-26T04:23:25.412Z,42.45
2022-07-26T04:23:51.121Z,42.58
2022-07-26T04:24:13.402Z,42.72
2022-07-26T04:24:35.076Z,42.79
2022-07-26T04:24:57.707Z,42.58
2022-07-26T04:25:19.415Z,42.48
2022-07-26T04:25:41.758Z,42.87
2022-07-26T04:26:05.696Z,42.55
2022-07-26T04:26:28.638Z,42.80
2022-07-26T04:26:50.287Z,42.58
2022-07-26T04:27:12.067Z,42.64
2022-07-26T04:27:35.610Z,42.49
2022-07-26T04:27:57.311Z,42.33
2022-07-26T04:28:19.059Z,42.11
2022-07-26T04:28:42.785Z,42.60
2022-07-26T04:29:04.449Z,42.66
2022-07-26T04:29:26.236Z,42.72
2022-07-26T04:29:47.832Z,42.39
2022-07-26T04:30:15.097Z,42.25
2022-07-26T04:30:38.753Z,42.25
2022-07-26T04:31:01.194Z,42.29
2022-07-26T04:31:23.082Z,42.35
2022-07-26T04:31:44.810Z,42.49
2022-07-26T04:32:07.516Z,42.55
2022-07-26T04:32:29.189Z,42.10
2022-07-26T04:32:50.829Z,42.34
2022-07-26T04:33:12.514Z,42.55
2022-07-26T04:33:35.248Z,42.39
2022-07-26T04:33:56.893Z,42.39
2022-07-26T04:34:18.569Z,42.74
2022-07-26T04:34:40.169Z,42.38
2022-07-26T04:35:02.801Z,42.43
2022-07-26T04:35:25.762Z,42.05
2022-07-26T04:35:47.649Z,42.40
2022-07-26T04:36:10.697Z,42.26
2022-07-26T04:36:32.828Z,42.12
2022-07-26T04:36:54.449Z,41.99
2022-07-26T04:37:16.181Z,42.14
2022-07-26T04:37:39.726Z,42.43
2022-07-26T04:38:04.099Z,41.92
2022-07-26T04:38:25.964Z,42.16
2022-07-26T04:38:47.688Z,42.41
2022-07-26T04:39:09.392Z,42.26
2022-07-26T04:39:32.016Z,42.52
2022-07-26T04:39:55.132Z,43.08
2022-07-26T04:40:21.072Z,42.72
2022-07-26T04:40:43.453Z,42.19
2022-07-26T04:41:06.738Z,42.58
2022-07-26T04:41:28.382Z,42.17
2022-07-26T04:41:50.053Z,42.54
2022-07-26T04:42:12.070Z,42.46
2022-07-26T04:42:33.780Z,42.30
2022-07-26T04:42:56.385Z,42.56
2022-07-26T04:43:18.630Z,42.29
2022-07-26T04:43:40.318Z,42.22
2022-07-26T04:44:01.945Z,42.52
2022-07-26T04:44:24.574Z,42.35
2022-07-26T04:44:46.223Z,42.37
2022-07-26T04:45:08.948Z,42.26
2022-07-26T04:45:32.163Z,42.27
2022-07-26T04:45:53.885Z,42.34
2022-07-26T04:46:15.627Z,41.87
2022-07-26T04:46:38.371Z,42.15
2022-07-26T04:47:06.676Z,42.14
2022-07-26T04:47:28.428Z,42.26
2022-07-26T04:47:50.703Z,42.00
2022-07-26T04:48:13.615Z,42.14
2022-07-26T04:48:37.065Z,42.56
2022-07-26T04:48:58.943Z,42.31
2022-07-26T04:49:21.604Z,42.53
2022-07-26T04:49:44.092Z,42.60
2022-07-26T04:50:06.930Z,42.73
2022-07-26T04:50:28.738Z,42.58
2022-07-26T04:50:51.424Z,42.59
2022-07-26T04:51:13.050Z,42.35
2022-07-26T04:51:34.748Z,42.64
2022-07-26T04:51:59.386Z,42.59
2022-07-26T04:52:22.197Z,42.41
2022-07-26T04:52:43.864Z,42.58